createdAt,value
2018-10-11T00:02:23.081Z,35.63
2018-10-11T00:04:54.763Z,39.47
2018-10-11T00:07:25.728Z,36.13
2018-10-11T00:09:55.910Z,38.77
2018-10-11T00:12:26.245Z,37.30
2018-10-11T00:14:56.526Z,36.07
2018-10-11T00:17:26.823Z,37.70
2018-10-11T00:19:57.288Z,39.40
2018-10-11T00:22:27.645Z,36.97
2018-10-11T00:24:58.023Z,37.67
2018-10-11T00:27:28.089Z,36.90
2018-10-11T00:29:58.229Z,40.90
2018-10-11T00:32:29.542Z,36.97
2018-10-11T00:35:00.064Z,37.17
2018-10-11T00:37:30.510Z,39.83
2018-10-11T00:40:00.868Z,37.37
2018-10-11T00:42:31.384Z,38.80
2018-10-11T00:45:02.077Z,39.30
2018-10-11T00:47:32.606Z,58.17
2018-10-11T00:50:03.913Z,49.57
2018-10-11T00:52:34.398Z,45.60
2018-10-11T00:55:05.499Z,40.10
2018-10-11T00:57:36.067Z,41.40
2018-10-11T01:00:07.702Z,44.10
2018-10-11T01:02:38.081Z,42.23
2018-10-11T01:05:08.801Z,41.20
2018-10-11T01:07:39.356Z,38.13
2018-10-11T01:10:10.030Z,38.23
2018-10-11T01:12:40.553Z,39.13
2018-10-11T01:15:11.576Z,35.03
2018-10-11T01:17:42.189Z,38.47
2018-10-11T01:20:13.145Z,42.17
2018-10-11T01:22:43.473Z,39.70
2018-10-11T01:25:14.893Z,38.37
2018-10-11T01:27:45.708Z,37.63
2018-10-11T01:30:15.803Z,36.87
2018-10-11T01:32:46.404Z,36.27
2018-10-11T01:35:17.185Z,36.07
2018-10-11T01:37:47.952Z,36.60
2018-10-11T01:40:18.903Z,43.97
2018-10-11T01:43:00.034Z,39.90
2018-10-11T01:45:30.575Z,40.50
2018-10-11T01:48:01.639Z,44.63
2018-10-11T01:50:33.356Z,36.20
2018-10-11T01:53:05.899Z,39.67
2018-10-11T01:55:36.268Z,41.00
2018-10-11T01:58:07.088Z,37.87
2018-10-11T02:00:39.039Z,46.67
2018-10-11T02:03:10.637Z,37.10
2018-10-11T02:05:41.343Z,38.50
2018-10-11T02:08:12.922Z,41.70
2018-10-11T02:10:43.673Z,39.80
2018-10-11T02:13:14.516Z,36.57
2018-10-11T02:15:45.319Z,38.33
2018-10-11T02:18:15.880Z,44.17
2018-10-11T02:20:47.488Z,39.60
2018-10-11T02:23:18.209Z,42.23
2018-10-11T02:25:48.422Z,40.43
2018-10-11T02:28:19.610Z,40.97
2018-10-11T02:30:50.370Z,47.77
2018-10-11T02:33:21.317Z,38.33
2018-10-11T02:35:52.069Z,41.13
2018-10-11T02:38:22.528Z,41.97
2018-10-11T02:40:53.278Z,42.67
2018-10-11T02:43:24.039Z,42.50
2018-10-11T02:45:55.037Z,43.20
2018-10-11T02:48:26.196Z,39.10
2018-10-11T02:50:56.782Z,44.30
2018-10-11T02:53:27.488Z,41.03
2018-10-11T02:55:57.926Z,42.53
2018-10-11T02:58:39.275Z,43.70
2018-10-11T03:01:10.749Z,46.13
2018-10-11T03:03:41.796Z,43.00
2018-10-11T03:06:13.078Z,46.27
2018-10-11T03:08:44.638Z,43.90
2018-10-11T03:11:15.961Z,41.53
2018-10-11T03:13:46.960Z,44.27
2018-10-11T03:16:18.076Z,42.57
2018-10-11T03:18:48.187Z,41.40
2018-10-11T03:21:18.437Z,43.20
2018-10-11T03:23:50.320Z,40.00
2018-10-11T03:26:20.832Z,46.90
2018-10-11T03:28:51.482Z,49.57
2018-10-11T03:31:22.922Z,44.93
2018-10-11T03:33:53.723Z,48.33
2018-10-11T03:36:24.255Z,43.17
2018-10-11T03:38:54.379Z,43.87
2018-10-11T03:41:24.506Z,47.63
2018-10-11T03:43:55.081Z,45.07
2018-10-11T03:46:26.564Z,47.17
2018-10-11T03:48:57.965Z,52.13
2018-10-11T03:51:28.750Z,46.17
2018-10-11T03:53:59.601Z,44.63
2018-10-11T03:56:30.469Z,48.50
2018-10-11T03:59:01.008Z,47.20
2018-10-11T04:01:31.798Z,46.23
2018-10-11T04:04:02.017Z,45.97
2018-10-11T04:06:32.479Z,48.80
2018-10-11T04:09:03.304Z,49.37
2018-10-11T04:11:34.167Z,45.73
2018-10-11T04:14:05.022Z,51.77
2018-10-11T04:16:35.774Z,44.73
2018-10-11T04:19:07.315Z,53.50
2018-10-11T04:21:37.981Z,48.83
2018-10-11T04:24:08.495Z,46.33
2018-10-11T04:26:39.490Z,48.33
2018-10-11T04:29:10.203Z,53.93
2018-10-11T04:31:41.313Z,48.10
2018-10-11T04:34:12.108Z,46.97
2018-10-11T04:36:43.893Z,51.00
2018-10-11T04:39:14.476Z,51.60
2018-10-11T04:41:45.291Z,47.23
2018-10-11T04:44:16.454Z,48.90
2018-10-11T04:46:47.052Z,53.77
2018-10-11T04:49:17.773Z,55.63
2018-10-11T04:51:47.671Z,51.83
2018-10-11T04:54:18.491Z,59.83
2018-10-11T04:56:49.789Z,52.37
2018-10-11T04:59:20.690Z,49.80
2018-10-11T05:01:51.172Z,50.33
2018-10-11T05:04:22.252Z,47.80
2018-10-11T05:06:53.772Z,55.00
2018-10-11T05:09:25.561Z,48.00
2018-10-11T05:11:56.154Z,50.50
2018-10-11T05:14:27.316Z,52.03
2018-10-11T05:16:58.291Z,48.60
2018-10-11T05:19:28.917Z,58.47
2018-10-11T05:22:00.393Z,50.37
2018-10-11T05:24:31.415Z,55.80
2018-10-11T05:27:02.885Z,57.10
2018-10-11T05:29:33.510Z,60.80
2018-10-11T05:32:03.737Z,56.03
2018-10-11T05:34:34.471Z,60.60
2018-10-11T05:37:05.084Z,55.77
2018-10-11T05:39:35.411Z,58.37
2018-10-11T05:42:05.597Z,54.10
2018-10-11T05:44:36.668Z,53.40
2018-10-11T05:47:07.390Z,58.37
2018-10-11T05:49:37.872Z,64.30
2018-10-11T05:52:09.061Z,51.77
2018-10-11T05:54:40.735Z,60.17
2018-10-11T05:57:11.566Z,57.20
2018-10-11T05:59:42.173Z,56.97
2018-10-11T06:02:12.674Z,54.40
2018-10-11T06:04:43.585Z,60.47
2018-10-11T06:07:14.145Z,53.60
2018-10-11T06:09:44.940Z,63.07
2018-10-11T06:12:15.953Z,56.70
2018-10-11T06:14:47.362Z,53.47
2018-10-11T06:17:18.112Z,60.30
2018-10-11T06:19:49.928Z,60.10
2018-10-11T06:22:20.538Z,54.87
2018-10-11T06:24:51.270Z,59.47
2018-10-11T06:27:22.132Z,57.43
2018-10-11T06:29:52.808Z,57.77
2018-10-11T06:32:24.069Z,50.83
2018-10-11T06:34:54.831Z,60.40
2018-10-11T06:37:25.607Z,56.13
2018-10-11T06:39:56.713Z,53.43
2018-10-11T06:42:27.629Z,53.83
2018-10-11T06:44:59.082Z,58.40
2018-10-11T06:47:32.097Z,65.17
2018-10-11T06:50:04.304Z,61.00
2018-10-11T06:52:40.166Z,61.43
2018-10-11T06:55:14.062Z,59.17
2018-10-11T06:57:44.486Z,57.73
2018-10-11T07:00:15.228Z,61.70
2018-10-11T07:02:45.724Z,57.40
2018-10-11T07:05:16.152Z,58.00
2018-10-11T07:07:46.759Z,57.23
2018-10-11T07:10:17.265Z,58.53
2018-10-11T07:12:50.567Z,55.63
2018-10-11T07:15:21.500Z,51.83
2018-10-11T07:17:51.497Z,56.20
2018-10-11T07:20:22.673Z,54.40
2018-10-11T07:22:53.050Z,60.40
2018-10-11T07:25:23.794Z,54.43
2018-10-11T07:27:54.341Z,53.27
2018-10-11T07:30:24.954Z,55.00
2018-10-11T07:32:55.452Z,55.40
2018-10-11T07:35:26.131Z,59.83
2018-10-11T07:37:55.815Z,53.93
2018-10-11T07:40:25.910Z,55.80
2018-10-11T07:42:56.357Z,53.10
2018-10-11T07:45:27.355Z,55.47
2018-10-11T07:47:58.075Z,57.63
2018-10-11T07:50:29.972Z,58.30
2018-10-11T07:53:00.823Z,56.83
2018-10-11T07:55:33.339Z,53.90
2018-10-11T07:58:03.619Z,54.37
2018-10-11T08:00:34.358Z,53.47
2018-10-11T08:03:04.786Z,55.17
2018-10-11T08:05:34.872Z,54.97
2018-10-11T08:08:05.282Z,51.17
2018-10-11T08:10:36.123Z,51.77
2018-10-11T08:13:12.581Z,49.53
2018-10-11T08:15:43.794Z,53.27
2018-10-11T08:18:14.968Z,52.27
2018-10-11T08:20:45.817Z,51.93
2018-10-11T08:23:16.401Z,49.40
2018-10-11T08:25:50.357Z,50.50
2018-10-11T08:28:20.769Z,52.53
2018-10-11T08:30:50.862Z,51.60
2018-10-11T08:33:21.592Z,49.30
2018-10-11T08:35:52.038Z,50.57
2018-10-11T08:38:22.841Z,49.73
2018-10-11T08:40:55.806Z,48.97
2018-10-11T08:43:30.945Z,47.73
2018-10-11T08:46:06.612Z,45.93
2018-10-11T08:48:40.932Z,47.07
2018-10-11T08:51:12.004Z,46.50
2018-10-11T08:53:42.984Z,43.50
2018-10-11T08:56:13.557Z,42.00
2018-10-11T08:58:44.307Z,41.43
2018-10-11T09:01:14.856Z,38.73
2018-10-11T09:03:48.684Z,42.60
2018-10-11T09:06:19.020Z,39.27
2018-10-11T09:08:50.982Z,38.17
2018-10-11T09:11:23.148Z,39.07
2018-10-11T09:13:54.304Z,37.67
2018-10-11T09:16:25.228Z,36.83
2018-10-11T09:18:56.944Z,38.13
2018-10-11T09:21:28.927Z,36.30
2018-10-11T09:23:59.963Z,37.80
2018-10-11T09:26:30.418Z,34.73
2018-10-11T09:29:01.983Z,36.17
2018-10-11T09:31:34.277Z,36.07
2018-10-11T09:34:05.064Z,34.10
2018-10-11T09:36:36.099Z,31.50
2018-10-11T09:39:08.628Z,36.77
2018-10-11T09:41:40.178Z,32.33
2018-10-11T09:44:11.117Z,33.50
2018-10-11T09:46:42.162Z,32.70
2018-10-11T09:49:12.154Z,33.27
2018-10-11T09:51:42.746Z,33.37
2018-10-11T09:54:13.604Z,33.60
2018-10-11T09:57:31.166Z,32.57
2018-10-11T10:00:03.131Z,31.07
2018-10-11T10:02:34.140Z,32.67
2018-10-11T10:05:05.463Z,34.73
2018-10-11T10:07:36.544Z,29.43
2018-10-11T10:10:07.807Z,31.07
2018-10-11T10:12:38.749Z,33.17
2018-10-11T10:15:10.694Z,29.57
2018-10-11T10:17:41.378Z,32.50
2018-10-11T10:20:12.991Z,29.53
2018-10-11T10:22:43.553Z,30.33
2018-10-11T10:25:14.035Z,30.30
2018-10-11T10:27:45.715Z,28.90
2018-10-11T10:30:21.142Z,30.53
2018-10-11T10:32:51.706Z,29.97
2018-10-11T10:35:22.570Z,30.80
2018-10-11T10:37:52.717Z,29.47
2018-10-11T10:40:22.915Z,29.63
2018-10-11T10:42:53.140Z,29.93
2018-10-11T10:45:23.979Z,30.30
2018-10-11T10:47:53.846Z,31.57
2018-10-11T10:50:24.733Z,30.03
2018-10-11T10:52:55.536Z,29.07
2018-10-11T10:55:26.148Z,31.47
2018-10-11T10:57:55.847Z,28.13
2018-10-11T11:00:33.786Z,28.03
2018-10-11T11:03:04.670Z,25.10
2018-10-11T11:05:36.149Z,27.87
2018-10-11T11:08:10.034Z,28.20
2018-10-11T11:10:41.490Z,24.37
2018-10-11T11:13:12.216Z,25.47
2018-10-11T11:15:43.254Z,23.80
2018-10-11T11:18:14.608Z,23.30
2018-10-11T11:20:45.393Z,22.43
2018-10-11T11:23:16.250Z,22.03
2018-10-11T11:25:46.658Z,22.77
2018-10-11T11:28:18.136Z,23.43
2018-10-11T11:30:56.497Z,20.87
2018-10-11T11:33:37.119Z,23.60
2018-10-11T11:36:27.576Z,23.70
2018-10-11T11:39:01.635Z,20.60
2018-10-11T11:41:32.230Z,23.20
2018-10-11T11:44:03.374Z,22.10
2018-10-11T11:46:34.739Z,23.00
2018-10-11T11:49:08.253Z,22.17
2018-10-11T11:51:38.612Z,22.50
2018-10-11T11:54:14.022Z,23.20
2018-10-11T11:56:44.151Z,23.10
2018-10-11T11:59:14.568Z,23.30
2018-10-11T12:01:45.294Z,21.40
2018-10-11T12:04:16.216Z,22.77
2018-10-11T12:06:47.975Z,22.67
2018-10-11T12:09:19.513Z,22.33
2018-10-11T12:11:50.064Z,24.27
2018-10-11T12:14:21.318Z,24.23
2018-10-11T12:16:51.830Z,24.20
2018-10-11T12:19:22.394Z,24.17
2018-10-11T12:21:52.995Z,23.00
2018-10-11T12:24:23.330Z,23.73
2018-10-11T12:26:53.600Z,23.17
2018-10-11T12:29:23.560Z,23.33
2018-10-11T12:31:54.347Z,21.47
2018-10-11T12:34:25.358Z,22.30
2018-10-11T12:36:56.234Z,22.20
2018-10-11T12:39:26.514Z,24.67
2018-10-11T12:41:56.714Z,20.77
2018-10-11T12:44:27.347Z,19.60
2018-10-11T12:46:57.598Z,21.40
2018-10-11T12:49:29.404Z,36.53
2018-10-11T12:52:00.411Z,16.90
2018-10-11T12:54:30.837Z,17.10
2018-10-11T12:57:01.225Z,17.47
2018-10-11T12:59:31.274Z,17.37
2018-10-11T13:02:01.688Z,17.90
2018-10-11T13:04:32.554Z,16.23
2018-10-11T13:07:02.716Z,19.53
2018-10-11T13:09:33.789Z,19.20
2018-10-11T13:12:05.875Z,17.37
2018-10-11T13:14:36.810Z,17.60
2018-10-11T13:17:07.464Z,19.20
2018-10-11T13:19:38.938Z,17.93
2018-10-11T13:22:10.535Z,18.50
2018-10-11T13:24:45.995Z,17.90
2018-10-11T13:27:13.553Z,17.90
2018-10-11T13:29:43.990Z,18.47
2018-10-11T13:32:15.273Z,20.00
2018-10-11T13:34:46.818Z,21.27
2018-10-11T13:37:18.106Z,20.03
2018-10-11T13:39:52.025Z,19.90
2018-10-11T13:42:19.594Z,18.40
2018-10-11T13:44:49.967Z,20.73
2018-10-11T13:47:21.175Z,19.60
2018-10-11T13:49:51.910Z,20.00
2018-10-11T13:52:23.185Z,19.07
2018-10-11T13:54:53.955Z,19.80
2018-10-11T13:57:28.387Z,19.97
2018-10-11T13:59:54.834Z,21.13
2018-10-11T14:02:25.794Z,20.10
2018-10-11T14:04:55.957Z,20.30
2018-10-11T14:07:27.159Z,20.80
2018-10-11T14:09:57.829Z,20.77
2018-10-11T14:12:28.457Z,19.80
2018-10-11T14:14:59.189Z,18.97
2018-10-11T14:17:29.722Z,18.90
2018-10-11T14:20:02.977Z,18.30
2018-10-11T14:22:33.709Z,18.13
2018-10-11T14:25:04.347Z,18.37
2018-10-11T14:27:35.993Z,18.87
2018-10-11T14:30:06.951Z,18.57
2018-10-11T14:32:37.916Z,17.73
2018-10-11T14:35:11.671Z,17.10
2018-10-11T14:37:42.451Z,19.57
2018-10-11T14:40:13.507Z,18.90
2018-10-11T14:42:45.113Z,17.67
2018-10-11T14:45:16.628Z,17.60
2018-10-11T14:47:48.885Z,16.90
2018-10-11T14:50:20.081Z,17.23
2018-10-11T14:52:52.192Z,18.50
2018-10-11T14:55:25.708Z,17.20
2018-10-11T14:58:00.943Z,17.93
2018-10-11T15:00:34.387Z,17.30
2018-10-11T15:03:07.983Z,17.30
2018-10-11T15:05:39.614Z,15.80
2018-10-11T15:08:10.695Z,15.00
2018-10-11T15:10:42.633Z,15.87
2018-10-11T15:13:15.430Z,15.33
2018-10-11T15:15:49.246Z,15.60
2018-10-11T15:18:19.753Z,19.83
2018-10-11T15:20:52.421Z,16.20
2018-10-11T15:23:26.281Z,15.27
2018-10-11T15:25:58.214Z,14.03
2018-10-11T15:28:28.949Z,15.80
2018-10-11T15:30:59.600Z,15.77
2018-10-11T15:33:30.789Z,15.57
2018-10-11T15:36:01.837Z,16.07
2018-10-11T15:38:33.794Z,15.00
2018-10-11T15:41:04.819Z,13.27
2018-10-11T15:43:35.725Z,15.67
2018-10-11T15:46:07.001Z,15.00
2018-10-11T15:48:38.038Z,15.70
2018-10-11T15:51:10.736Z,15.63
2018-10-11T15:53:42.728Z,16.17
2018-10-11T15:56:14.287Z,16.87
2018-10-11T15:58:48.132Z,18.80
2018-10-11T16:01:21.431Z,18.63
2018-10-11T16:03:56.074Z,19.60
2018-10-11T16:06:29.561Z,23.97
2018-10-11T16:09:00.869Z,18.67
2018-10-11T16:11:35.531Z,19.63
2018-10-11T16:14:06.357Z,19.63
2018-10-11T16:16:37.251Z,21.80
2018-10-11T16:19:08.274Z,20.33
2018-10-11T16:21:38.669Z,23.20
2018-10-11T16:24:09.188Z,20.97
2018-10-11T16:26:39.805Z,19.40
2018-10-11T16:29:11.215Z,17.57
2018-10-11T16:31:42.557Z,18.40
2018-10-11T16:34:13.145Z,18.70
2018-10-11T16:36:43.907Z,22.37
2018-10-11T16:39:14.499Z,21.27
2018-10-11T16:41:45.095Z,19.43
2018-10-11T16:44:16.152Z,19.80
2018-10-11T16:46:47.391Z,17.80
2018-10-11T16:49:17.835Z,19.27
2018-10-11T16:51:48.294Z,19.30
2018-10-11T16:54:18.710Z,19.23
2018-10-11T16:56:48.698Z,18.27
2018-10-11T16:59:19.041Z,30.43
2018-10-11T17:01:49.454Z,26.17
2018-10-11T17:04:20.344Z,20.10
2018-10-11T17:06:51.028Z,19.07
2018-10-11T17:09:21.272Z,18.53
2018-10-11T17:11:51.303Z,21.37
2018-10-11T17:14:22.669Z,22.20
2018-10-11T17:16:52.635Z,21.70
2018-10-11T17:19:23.344Z,19.43
2018-10-11T17:21:55.887Z,24.43
2018-10-11T17:24:26.978Z,24.13
2018-10-11T17:26:57.360Z,23.83
2018-10-11T17:29:29.336Z,25.87
2018-10-11T17:32:00.366Z,24.33
2018-10-11T17:34:31.287Z,24.00
2018-10-11T17:37:02.324Z,31.53
2018-10-11T17:39:33.072Z,23.20
2018-10-11T17:42:03.191Z,22.17
2018-10-11T17:44:34.595Z,23.07
2018-10-11T17:47:05.000Z,23.03
2018-10-11T17:49:37.697Z,20.27
2018-10-11T17:52:08.863Z,24.07
2018-10-11T17:54:44.541Z,21.50
2018-10-11T17:57:16.738Z,20.90
2018-10-11T17:59:50.464Z,20.83
2018-10-11T18:02:21.651Z,19.63
2018-10-11T18:04:54.204Z,18.70
2018-10-11T18:07:25.729Z,19.73
2018-10-11T18:09:57.090Z,21.10
2018-10-11T18:12:27.920Z,18.60
2018-10-11T18:14:59.552Z,19.40
2018-10-11T18:17:31.283Z,21.27
2018-10-11T18:20:02.178Z,19.77
2018-10-11T18:22:33.638Z,19.57
2018-10-11T18:25:04.959Z,19.40
2018-10-11T18:27:36.192Z,19.77
2018-10-11T18:30:11.234Z,19.90
2018-10-11T18:32:42.701Z,18.60
2018-10-11T18:35:13.609Z,21.90
2018-10-11T18:37:44.800Z,22.63
2018-10-11T18:40:15.720Z,22.47
2018-10-11T18:42:47.310Z,21.40
2018-10-11T18:45:18.844Z,21.67
2018-10-11T18:47:49.575Z,20.83
2018-10-11T18:50:20.659Z,22.13
2018-10-11T18:52:51.257Z,20.23
2018-10-11T18:55:23.871Z,21.20
2018-10-11T18:57:55.238Z,20.67
2018-10-11T19:00:26.711Z,20.80
2018-10-11T19:02:57.960Z,20.53
2018-10-11T19:05:29.173Z,21.23
2018-10-11T19:08:00.367Z,20.90
2018-10-11T19:10:32.021Z,23.83
2018-10-11T19:13:04.226Z,21.90
2018-10-11T19:15:36.665Z,21.07
2018-10-11T19:18:08.802Z,21.93
2018-10-11T19:20:40.695Z,23.47
2018-10-11T19:23:14.995Z,22.17
2018-10-11T19:25:48.294Z,22.47
2018-10-11T19:28:20.956Z,21.30
2018-10-11T19:30:53.042Z,22.37
2018-10-11T19:33:24.219Z,22.73
2018-10-11T19:35:55.247Z,23.63
2018-10-11T19:38:26.149Z,25.83
2018-10-11T19:40:56.709Z,26.73
2018-10-11T19:43:26.865Z,24.63
2018-10-11T19:45:57.208Z,24.50
2018-10-11T19:48:28.621Z,24.33
2018-10-11T19:51:02.767Z,25.10
2018-10-11T19:53:35.845Z,26.37
2018-10-11T19:56:08.250Z,24.90
2018-10-11T19:58:40.395Z,24.33
2018-10-11T20:01:13.270Z,25.10
2018-10-11T20:03:45.236Z,24.97
2018-10-11T20:06:16.480Z,25.67
2018-10-11T20:08:47.916Z,27.37
2018-10-11T20:11:22.969Z,28.20
2018-10-11T20:13:56.156Z,26.27
2018-10-11T20:16:29.316Z,25.50
2018-10-11T20:19:02.037Z,26.60
2018-10-11T20:21:33.042Z,25.10
2018-10-11T20:24:05.312Z,27.07
2018-10-11T20:26:37.862Z,24.40
2018-10-11T20:29:10.872Z,28.00
2018-10-11T20:31:41.880Z,27.27
2018-10-11T20:34:13.890Z,27.60
2018-10-11T20:36:46.957Z,26.17
2018-10-11T20:39:20.796Z,27.67
2018-10-11T20:41:53.843Z,27.07
2018-10-11T20:44:28.196Z,25.30
2018-10-11T20:46:58.939Z,26.87
2018-10-11T20:49:30.718Z,24.47
2018-10-11T20:52:02.397Z,26.77
2018-10-11T20:54:33.396Z,25.73
2018-10-11T20:57:03.839Z,27.90
2018-10-11T20:59:34.282Z,31.63
2018-10-11T21:02:07.125Z,30.90
2018-10-11T21:04:41.424Z,28.83
2018-10-11T21:07:19.921Z,26.97
2018-10-11T21:29:42.689Z,30.27
2018-10-11T21:32:46.593Z,30.43
2018-10-11T21:36:13.639Z,30.30
2018-10-11T21:38:44.049Z,29.87
2018-10-11T21:41:14.551Z,30.40
2018-10-11T21:43:46.908Z,30.27
2018-10-11T21:46:17.425Z,34.23
2018-10-11T21:48:48.023Z,32.13
2018-10-11T21:51:18.472Z,33.07
2018-10-11T21:53:48.599Z,35.60
2018-10-11T21:56:20.406Z,32.20
2018-10-11T21:58:50.986Z,34.40
2018-10-11T22:01:23.935Z,31.87
2018-10-11T22:03:54.452Z,32.53
2018-10-11T22:06:24.561Z,35.40
2018-10-11T22:08:54.732Z,34.90
2018-10-11T22:11:24.861Z,34.60
2018-10-11T22:13:55.021Z,34.10
2018-10-11T22:16:25.081Z,34.60
2018-10-11T22:18:55.181Z,34.53
2018-10-11T22:21:25.161Z,34.60
2018-10-11T22:23:55.411Z,41.37
2018-10-11T22:26:25.774Z,34.87
2018-10-11T22:28:56.664Z,38.60
2018-10-11T22:31:26.838Z,34.40
2018-10-11T22:33:57.280Z,34.33
2018-10-11T22:36:27.534Z,37.20
2018-10-11T22:38:58.252Z,36.10
2018-10-11T22:41:29.241Z,38.43
2018-10-11T22:44:00.440Z,38.83
2018-10-11T22:46:31.651Z,38.73
2018-10-11T22:49:02.113Z,43.90
2018-10-11T22:51:33.160Z,38.90
2018-10-11T22:54:03.714Z,36.93
2018-10-11T22:56:49.785Z,40.70
2018-10-11T22:59:20.190Z,36.70
2018-10-11T23:01:51.276Z,41.73
2018-10-11T23:04:22.433Z,37.63
2018-10-11T23:06:52.850Z,40.13
2018-10-11T23:09:23.040Z,49.43
2018-10-11T23:11:53.079Z,41.17
2018-10-11T23:14:23.579Z,42.80
2018-10-11T23:16:53.851Z,41.67
2018-10-11T23:19:24.115Z,44.00
2018-10-11T23:21:54.995Z,43.13
2018-10-11T23:24:26.468Z,39.30
2018-10-11T23:26:57.331Z,38.70
2018-10-11T23:29:27.967Z,43.10
2018-10-11T23:31:58.303Z,41.10
2018-10-11T23:34:29.113Z,46.93
2018-10-11T23:36:59.532Z,42.97
2018-10-11T23:39:30.120Z,46.47
2018-10-11T23:42:00.378Z,43.63
2018-10-11T23:44:30.666Z,47.77
2018-10-11T23:47:01.002Z,47.20
2018-10-11T23:49:31.071Z,45.17
2018-10-11T23:52:01.571Z,43.17
2018-10-11T23:54:32.095Z,50.00
2018-10-11T23:57:02.400Z,41.87
2018-10-11T23:59:33.590Z,44.70
